Esch-sur-Alzette, Luxembourg
Current Conditions -  °F | °C
As of 4:50 PM on Friday 31 Oct 2014 (Local Time) from ELLX Reporting Station
Clear Clear  
Wind Chill: 55°   Ceiling: Unl
Heat Index: 55°   Visibility: 4mi
Dew Point: 52°   Wind: 2mph
Humidity: 88%   Direction: 150°SSE
Pressure: 30.24"   Gusts: NA
Location:  49.5°N, 5.98°E
Report Text: ELLX 311550Z 15002KT 6000 NSC 13/11 Q1024 NOSIG
Loading
Personal Weather Stations






























Interactive Weather Map
Tropical Storm Tracking
New forecast layout! Learn more

10-Day Weather Forecast

Advertisements
Track Severe Weather on mobile